Time;durP1;ratioP1;P1;durP2;ratioP2;P2;SDS_P1;SDS_P2;PMS_P1;PMS_P2;Temp;Humidity;BMP_temperature;BMP_pressure;BME280_temperature;BME280_humidity;BME280_pressure;Samples;Min_cycle;Max_cycle;Signal;HPM_P1;HPM_P2
2021/07/21 00:00:23;;;;;;;26.52;17.92;;;18.10;99.90;;;;;;5013408;28;20026;-71
2021/07/21 00:02:49;;;;;;;24.85;16.88;;;18.10;99.90;;;;;;5012116;28;20136;-73
2021/07/21 00:05:17;;;;;;;27.20;18.20;;;18.00;99.90;;;;;;5011696;28;20081;-71
2021/07/21 00:07:43;;;;;;;25.60;16.48;;;18.00;99.90;;;;;;5012390;28;20018;-72
2021/07/21 00:10:10;;;;;;;25.15;17.65;;;17.90;99.90;;;;;;5012350;28;20029;-72
2021/07/21 00:15:27;;;;;;;26.95;16.58;;;17.90;99.90;;;;;;5012527;28;20049;-72
2021/07/21 00:18:14;;;;;;;30.27;16.83;;;17.80;99.90;;;;;;5011944;28;20474;-72
2021/07/21 00:20:40;;;;;;;24.80;16.52;;;18.00;99.90;;;;;;5011715;28;20117;-73
2021/07/21 00:23:05;;;;;;;25.00;17.27;;;17.70;99.90;;;;;;5004851;28;20147;-72
2021/07/21 00:25:31;;;;;;;26.55;18.42;;;17.70;99.90;;;;;;5004853;28;20030;-71
2021/07/21 00:27:57;;;;;;;27.08;18.55;;;17.60;99.90;;;;;;5011962;28;20028;-72
2021/07/21 00:30:22;;;;;;;27.17;17.27;;;17.70;99.90;;;;;;5012391;28;20029;-74
2021/07/21 00:32:49;;;;;;;20.35;15.20;;;17.60;99.90;;;;;;5011374;28;20044;-73
2021/07/21 00:35:17;;;;;;;21.80;15.60;;;17.60;99.90;;;;;;5012053;28;20470;-73
2021/07/21 00:37:43;;;;;;;25.15;16.25;;;17.60;99.90;;;;;;5011876;28;20030;-73
2021/07/21 00:40:10;;;;;;;21.80;15.63;;;17.60;99.90;;;;;;5011183;28;20037;-73
2021/07/21 00:42:36;;;;;;;17.40;13.50;;;17.50;99.90;;;;;;5012245;28;20022;-71
2021/07/21 00:45:02;;;;;;;23.80;15.35;;;17.50;99.90;;;;;;5011664;28;20076;-72
2021/07/21 00:47:28;;;;;;;22.25;15.65;;;17.50;99.90;;;;;;4993818;28;20387;-72
2021/07/21 00:49:53;;;;;;;22.58;14.35;;;17.40;99.90;;;;;;5015032;28;20037;-72
2021/07/21 00:52:19;;;;;;;19.52;14.35;;;17.50;99.90;;;;;;5015744;28;20494;-74
2021/07/21 00:54:45;;;;;;;20.75;14.52;;;17.40;99.90;;;;;;5014884;28;20026;-71
2021/07/21 00:57:12;;;;;;;23.23;15.65;;;17.50;99.90;;;;;;5015676;28;20026;-73
2021/07/21 00:59:38;;;;;;;16.38;13.00;;;17.40;99.90;;;;;;5015567;28;20030;-72
2021/07/21 01:02:04;;;;;;;24.30;15.90;;;17.40;99.90;;;;;;5014777;28;20172;-71
2021/07/21 01:04:32;;;;;;;23.73;15.30;;;17.40;99.90;;;;;;5015385;28;20109;-72
2021/07/21 01:06:59;;;;;;;22.42;14.93;;;17.40;99.90;;;;;;5015063;28;20022;-72
2021/07/21 01:09:26;;;;;;;18.85;13.73;;;17.30;99.90;;;;;;5014710;28;20117;-71
2021/07/21 01:11:51;;;;;;;19.23;14.23;;;17.30;99.90;;;;;;5015077;28;20104;-72
2021/07/21 01:14:41;;;;;;;21.60;14.32;;;17.30;99.90;;;;;;5015194;28;20026;-72
2021/07/21 01:17:18;;;;;;;18.00;13.70;;;17.30;99.90;;;;;;5015230;28;20046;-72
2021/07/21 01:20:24;;;;;;;18.98;14.52;;;17.30;99.90;;;;;;5014685;28;20033;-73
2021/07/21 01:23:07;;;;;;;20.25;13.82;;;17.20;99.90;;;;;;5014095;28;20026;-72
2021/07/21 01:25:44;;;;;;;23.33;12.85;;;17.20;99.90;;;;;;5015285;28;20021;-72
2021/07/21 01:28:11;;;;;;;19.05;13.02;;;17.20;99.90;;;;;;5015268;28;20566;-72
2021/07/21 01:30:40;;;;;;;18.02;13.88;;;17.20;99.90;;;;;;5014729;28;20034;-72
2021/07/21 01:33:11;;;;;;;21.60;15.23;;;17.20;99.90;;;;;;5014764;28;20112;-72
2021/07/21 01:36:01;;;;;;;21.95;14.40;;;17.10;99.90;;;;;;5015053;28;20029;-71
2021/07/21 01:38:33;;;;;;;21.60;15.67;;;17.10;99.90;;;;;;4990472;28;20022;-72
2021/07/21 01:41:06;;;;;;;22.20;15.77;;;17.70;99.90;;;;;;5014900;28;20083;-71
2021/07/21 01:43:33;;;;;;;22.08;15.82;;;17.00;99.90;;;;;;5014208;28;20022;-72
2021/07/21 01:46:01;;;;;;;20.27;13.88;;;16.90;99.90;;;;;;5014516;28;20496;-72
2021/07/21 01:48:32;;;;;;;18.20;14.35;;;16.90;99.90;;;;;;5000672;28;20034;-72
2021/07/21 01:50:59;;;;;;;17.95;13.73;;;16.80;99.90;;;;;;5013605;28;20042;-71
2021/07/21 01:53:26;;;;;;;20.95;13.38;;;16.70;99.90;;;;;;5001048;28;20022;-71
2021/07/21 01:55:53;;;;;;;17.67;13.65;;;16.70;99.90;;;;;;5014139;28;20373;-72
2021/07/21 01:58:25;;;;;;;20.15;13.90;;;16.70;99.90;;;;;;5013843;28;20029;-73
2021/07/21 02:00:52;;;;;;;22.10;14.40;;;16.70;99.90;;;;;;5012914;28;20485;-73
2021/07/21 02:03:20;;;;;;;20.65;14.07;;;16.60;99.90;;;;;;5014308;28;20026;-72
2021/07/21 02:05:53;;;;;;;19.55;13.75;;;16.70;99.90;;;;;;4999592;28;20032;-73
2021/07/21 02:08:24;;;;;;;17.90;13.27;;;16.60;99.90;;;;;;5014282;28;20024;-73
2021/07/21 02:10:49;;;;;;;;;;;16.70;99.90;;;;;;5013758;28;20085;-73
2021/07/21 02:13:17;;;;;;;22.17;13.45;;;16.60;99.90;;;;;;5014349;28;19955;-73
2021/07/21 02:15:44;;;;;;;17.52;12.85;;;16.60;99.90;;;;;;5014336;28;20037;-72
2021/07/21 02:18:14;;;;;;;25.15;14.20;;;16.50;99.90;;;;;;5014030;28;20030;-72
2021/07/21 02:20:40;;;;;;;17.45;12.10;;;16.50;99.90;;;;;;5014149;28;20025;-72
2021/07/21 02:23:05;;;;;;;19.67;13.88;;;16.50;99.90;;;;;;5014295;28;20025;-72
2021/07/21 02:25:33;;;;;;;21.42;12.43;;;16.50;99.90;;;;;;5014539;28;20029;-72
2021/07/21 02:27:59;;;;;;;28.50;15.15;;;16.50;99.90;;;;;;5000750;28;20025;-72
2021/07/21 02:30:25;;;;;;;16.58;12.20;;;16.40;99.90;;;;;;5013866;28;20033;-72
2021/07/21 02:33:09;;;;;;;16.15;13.18;;;16.40;99.90;;;;;;5013765;28;20026;-73
2021/07/21 02:35:35;;;;;;;18.95;12.63;;;16.40;99.90;;;;;;5014232;28;20032;-73
2021/07/21 02:38:01;;;;;;;17.10;11.43;;;16.40;99.90;;;;;;5014023;28;20030;-73
2021/07/21 02:40:27;;;;;;;15.32;10.55;;;16.40;99.90;;;;;;5012962;28;20112;-72
2021/07/21 02:42:53;;;;;;;11.98;9.95;;;16.40;99.90;;;;;;5013304;28;20034;-72
2021/07/21 02:45:19;;;;;;;9.82;8.82;;;16.30;99.90;;;;;;5013514;28;20432;-73
2021/07/21 02:47:45;;;;;;;10.55;9.50;;;16.30;99.90;;;;;;5012815;28;20109;-72
2021/07/21 02:50:12;;;;;;;16.90;11.20;;;16.30;99.90;;;;;;4999764;28;20037;-72
2021/07/21 02:52:45;;;;;;;14.68;11.52;;;16.30;99.90;;;;;;5013629;28;20492;-71
2021/07/21 02:55:24;;;;;;;15.07;12.23;;;16.30;99.90;;;;;;5012841;28;20029;-72
2021/07/21 02:57:57;;;;;;;15.43;11.98;;;16.20;99.90;;;;;;4989224;28;20029;-72
2021/07/21 03:00:28;;;;;;;13.25;10.25;;;16.20;99.90;;;;;;5012542;28;20041;-71
2021/07/21 03:02:54;;;;;;;13.32;9.55;;;16.20;99.90;;;;;;5013231;28;20478;-72
2021/07/21 03:05:25;;;;;;;12.65;9.60;;;16.10;99.90;;;;;;5013559;28;20034;-73
2021/07/21 03:07:54;;;;;;;13.82;10.52;;;16.10;99.90;;;;;;5012354;28;20021;-72
2021/07/21 03:10:19;;;;;;;14.63;10.48;;;16.10;99.90;;;;;;5013110;28;20057;-72
2021/07/21 03:12:54;;;;;;;14.18;9.02;;;16.10;99.90;;;;;;5012994;28;20484;-72
2021/07/21 03:15:21;;;;;;;15.20;10.93;;;16.10;99.90;;;;;;5012939;28;20105;-72
2021/07/21 03:17:48;;;;;;;12.77;9.55;;;16.00;99.90;;;;;;5012670;28;20036;-72
2021/07/21 03:20:15;;;;;;;12.63;9.27;;;16.00;99.90;;;;;;5003467;28;20045;-72
2021/07/21 03:22:43;;;;;;;10.43;7.85;;;16.00;99.90;;;;;;5007907;28;20028;-71
2021/07/21 03:25:11;;;;;;;8.48;7.32;;;15.90;99.90;;;;;;5013111;28;20068;-72
2021/07/21 03:27:38;;;;;;;9.38;7.85;;;15.90;99.90;;;;;;5012876;28;20481;-71
2021/07/21 03:30:09;;;;;;;12.90;8.73;;;15.90;99.90;;;;;;5011919;28;20041;-72
2021/07/21 03:32:35;;;;;;;;;;;15.90;99.90;;;;;;5013230;28;20028;-72
2021/07/21 03:35:01;;;;;;;16.10;12.65;;;15.90;99.90;;;;;;5012148;28;19929;-72
2021/07/21 03:37:28;;;;;;;18.00;11.77;;;15.80;99.90;;;;;;5011822;28;20034;-72
2021/07/21 03:39:56;;;;;;;13.80;10.85;;;15.80;99.90;;;;;;5012305;28;20050;-73
2021/07/21 03:42:26;;;;;;;14.93;11.73;;;15.70;99.90;;;;;;5012141;28;20022;-72
2021/07/21 03:45:04;;;;;;;13.70;11.13;;;15.70;99.90;;;;;;5012120;28;20030;-73
2021/07/21 03:47:31;;;;;;;14.35;11.63;;;15.60;99.90;;;;;;5012564;28;20149;-72
2021/07/21 03:49:57;;;;;;;10.13;9.02;;;15.60;99.90;;;;;;5011876;28;20049;-73
2021/07/21 03:52:23;;;;;;;9.70;8.52;;;15.50;99.90;;;;;;5012725;28;20474;-72
2021/07/21 03:54:51;;;;;;;9.95;8.98;;;15.50;99.90;;;;;;5011949;28;20040;-72
2021/07/21 03:57:18;;;;;;;11.05;9.60;;;15.40;99.90;;;;;;5011910;28;20026;-73
2021/07/21 03:59:44;;;;;;;11.10;9.98;;;15.30;99.90;;;;;;5011836;28;20061;-72
2021/07/21 04:02:11;;;;;;;17.23;11.60;;;15.30;99.90;;;;;;5011961;28;20021;-73
2021/07/21 04:04:42;;;;;;;15.02;11.70;;;15.30;99.90;;;;;;5011840;28;20030;-73
2021/07/21 04:07:10;;;;;;;11.18;9.98;;;15.30;99.90;;;;;;5012126;28;20058;-73
2021/07/21 04:09:37;;;;;;;14.93;10.77;;;15.30;99.90;;;;;;5012238;28;20026;-73
2021/07/21 04:12:04;;;;;;;16.35;12.18;;;15.40;99.90;;;;;;5011165;28;20129;-72
2021/07/21 04:14:30;;;;;;;14.23;11.98;;;15.40;99.90;;;;;;5012150;28;20030;-72
2021/07/21 04:16:56;;;;;;;15.48;11.80;;;15.40;99.90;;;;;;5012180;28;20385;-73
2021/07/21 04:19:23;;;;;;;17.55;11.85;;;15.40;99.90;;;;;;5011498;28;20125;-72
2021/07/21 04:21:51;;;;;;;17.42;11.25;;;15.50;99.90;;;;;;5012066;28;20057;-74
2021/07/21 04:24:18;;;;;;;12.38;10.57;;;15.50;99.90;;;;;;5014763;28;20026;-73
2021/07/21 04:26:45;;;;;;;14.90;12.20;;;15.50;99.90;;;;;;5005494;28;20034;-72
2021/07/21 04:29:15;;;;;;;14.40;11.35;;;15.60;99.90;;;;;;5012213;28;20105;-73
2021/07/21 04:31:48;;;;;;;16.02;10.80;;;15.60;99.90;;;;;;5015356;28;20038;-72
2021/07/21 04:34:15;;;;;;;16.73;11.23;;;15.60;99.90;;;;;;5016352;28;20037;-73
2021/07/21 04:36:41;;;;;;;13.45;11.35;;;15.70;99.90;;;;;;5016296;28;20033;-73
2021/07/21 04:39:09;;;;;;;15.85;12.63;;;15.70;99.90;;;;;;5014853;28;20044;-73
2021/07/21 04:41:35;;;;;;;17.55;13.45;;;15.80;99.90;;;;;;5015798;28;20026;-73
2021/07/21 04:44:02;;;;;;;18.27;13.45;;;15.90;99.90;;;;;;5016119;28;20018;-72
2021/07/21 04:46:31;;;;;;;22.45;14.50;;;15.90;99.90;;;;;;5015561;28;20101;-73
2021/07/21 04:48:57;;;;;;;22.65;15.43;;;16.00;99.90;;;;;;5017410;28;20367;-73
2021/07/21 04:51:24;;;;;;;23.40;15.32;;;16.10;99.90;;;;;;5017772;28;20029;-73
2021/07/21 04:53:55;;;;;;;19.95;14.60;;;16.10;99.90;;;;;;5014736;28;20026;-72
2021/07/21 04:56:22;;;;;;;20.23;14.00;;;16.20;99.90;;;;;;5015818;28;20093;-72
2021/07/21 04:58:47;;;;;;;27.83;16.30;;;16.20;99.90;;;;;;5011238;28;20030;-72
2021/07/21 05:01:13;;;;;;;25.98;15.32;;;16.30;99.90;;;;;;5005557;28;20117;-72
2021/07/21 05:03:39;;;;;;;26.10;14.35;;;16.40;99.90;;;;;;5015706;28;20049;-72
2021/07/21 05:06:05;;;;;;;23.10;15.73;;;16.50;99.90;;;;;;5015266;28;20080;-72
2021/07/21 05:08:30;;;;;;;22.02;15.38;;;16.50;99.90;;;;;;5013959;28;20029;-73
2021/07/21 05:10:56;;;;;;;25.45;16.10;;;16.60;99.90;;;;;;5015520;28;20069;-74
2021/07/21 05:13:22;;;;;;;22.73;14.95;;;16.70;99.90;;;;;;5015824;28;20029;-72
2021/07/21 05:15:48;;;;;;;24.75;15.40;;;16.80;99.90;;;;;;5014284;28;20018;-72
2021/07/21 05:18:14;;;;;;;28.25;15.25;;;16.90;99.90;;;;;;5015480;28;20033;-73
2021/07/21 05:20:40;;;;;;;19.75;12.88;;;16.90;99.90;;;;;;5001405;28;20042;-73
2021/07/21 05:23:06;;;;;;;17.55;12.80;;;17.00;99.90;;;;;;5014379;28;20014;-73
2021/07/21 05:25:31;;;;;;;16.17;11.93;;;17.10;99.90;;;;;;5014983;28;20030;-71
2021/07/21 05:27:57;;;;;;;15.27;12.95;;;17.10;99.90;;;;;;5015369;28;20025;-72
2021/07/21 05:30:22;;;;;;;24.55;17.02;;;17.10;99.90;;;;;;5015477;28;20026;-72
2021/07/21 05:32:48;;;;;;;20.88;15.48;;;17.20;99.90;;;;;;5014838;28;20022;-73
2021/07/21 05:35:14;;;;;;;25.75;17.20;;;17.20;99.90;;;;;;5008093;28;20121;-72
2021/07/21 05:37:39;;;;;;;21.52;15.63;;;17.20;99.90;;;;;;5007031;28;20022;-73
2021/07/21 05:40:06;;;;;;;21.38;14.93;;;17.30;99.90;;;;;;5014344;28;20062;-72
2021/07/21 05:42:32;;;;;;;17.55;13.98;;;17.40;99.90;;;;;;5014181;28;20093;-72
2021/07/21 05:44:57;;;;;;;17.77;13.23;;;17.40;99.90;;;;;;5014651;28;20026;-73
2021/07/21 05:47:23;;;;;;;21.52;14.48;;;17.50;99.90;;;;;;5014963;28;20025;-72
2021/07/21 05:49:48;;;;;;;23.77;14.57;;;17.60;99.90;;;;;;5013856;28;20363;-72
2021/07/21 05:52:14;;;;;;;22.77;14.52;;;17.50;99.90;;;;;;5014729;28;20026;-73
2021/07/21 05:54:41;;;;;;;19.05;14.23;;;17.60;99.90;;;;;;5014589;28;20022;-73
2021/07/21 05:57:07;;;;;;;23.75;15.23;;;17.60;99.90;;;;;;5013733;28;20133;-72
2021/07/21 05:59:34;;;;;;;16.50;13.52;;;17.70;99.90;;;;;;5014773;28;20073;-73
2021/07/21 06:01:59;;;;;;;19.92;15.38;;;17.80;99.90;;;;;;5014355;28;20028;-72
2021/07/21 06:04:25;;;;;;;22.00;15.32;;;17.90;99.90;;;;;;5014106;28;20110;-73
2021/07/21 06:06:50;;;;;;;23.08;15.13;;;17.90;99.90;;;;;;5014376;28;20030;-74
2021/07/21 06:09:16;;;;;;;23.48;15.93;;;18.00;99.90;;;;;;5014237;28;20106;-73
2021/07/21 06:11:42;;;;;;;25.42;15.38;;;18.00;99.90;;;;;;5013734;28;20049;-73
2021/07/21 06:14:08;;;;;;;28.23;15.45;;;18.10;99.90;;;;;;5013922;28;20512;-73
2021/07/21 06:16:34;;;;;;;21.08;15.27;;;18.10;99.90;;;;;;5014433;28;20057;-73
2021/07/21 06:18:59;;;;;;;19.65;14.50;;;18.20;99.90;;;;;;5013246;28;20099;-73
2021/07/21 06:21:25;;;;;;;20.48;15.98;;;18.20;99.90;;;;;;5014187;28;20033;-73
2021/07/21 06:23:51;;;;;;;21.88;16.02;;;18.30;99.90;;;;;;5013658;28;20030;-72
2021/07/21 06:26:17;;;;;;;19.25;14.95;;;18.30;99.90;;;;;;5007340;28;20106;-73
2021/07/21 06:28:43;;;;;;;24.13;16.73;;;18.40;99.90;;;;;;5006525;28;20054;-72
2021/07/21 06:31:09;;;;;;;23.10;16.15;;;18.40;99.90;;;;;;5013203;28;20096;-73
2021/07/21 06:33:34;;;;;;;22.85;15.95;;;18.50;99.90;;;;;;5013967;28;20470;-73
2021/07/21 06:36:01;;;;;;;21.67;16.85;;;18.50;99.90;;;;;;5013558;28;20037;-72
2021/07/21 06:38:28;;;;;;;26.25;15.73;;;18.60;99.90;;;;;;5012764;28;20411;-72
2021/07/21 06:40:53;;;;;;;26.92;16.75;;;18.60;99.90;;;;;;5003304;28;20034;-73
2021/07/21 06:43:19;;;;;;;28.38;15.77;;;18.80;99.90;;;;;;5010405;28;20033;-73
2021/07/21 06:45:44;;;;;;;20.20;15.68;;;18.80;99.90;;;;;;5012425;28;20030;-73
2021/07/21 06:48:10;;;;;;;25.00;17.10;;;18.90;99.90;;;;;;4999905;28;20029;-73
2021/07/21 06:50:36;;;;;;;22.83;14.65;;;19.00;99.90;;;;;;5013776;28;20160;-73
2021/07/21 06:53:02;;;;;;;20.45;16.05;;;19.00;99.90;;;;;;5012910;28;20488;-73
2021/07/21 06:55:28;;;;;;;18.88;14.18;;;19.00;99.90;;;;;;5014276;28;20029;-72
2021/07/21 06:57:54;;;;;;;23.45;15.55;;;19.10;99.90;;;;;;5002930;28;20026;-72
2021/07/21 07:00:19;;;;;;;20.30;14.73;;;19.20;99.90;;;;;;5009753;28;20095;-73
2021/07/21 07:02:45;;;;;;;32.83;14.73;;;19.20;99.90;;;;;;5013514;28;20149;-73
2021/07/21 07:05:11;;;;;;;19.75;14.57;;;19.30;99.90;;;;;;5013637;28;20022;-73
2021/07/21 07:07:37;;;;;;;21.67;14.40;;;19.40;99.90;;;;;;5013215;28;20022;-73
2021/07/21 07:10:06;;;;;;;15.98;12.15;;;19.40;99.90;;;;;;5013971;28;20032;-73
2021/07/21 07:12:31;;;;;;;18.20;12.18;;;19.50;99.90;;;;;;5013020;28;20052;-73
2021/07/21 07:14:57;;;;;;;23.20;13.07;;;19.50;99.90;;;;;;5012553;28;20112;-72
2021/07/21 07:17:25;;;;;;;17.48;12.60;;;19.60;99.90;;;;;;5013201;28;20014;-73
2021/07/21 07:19:51;;;;;;;18.67;13.02;;;19.70;99.90;;;;;;5012916;28;20057;-73
2021/07/21 07:22:17;;;;;;;15.80;11.15;;;19.70;99.90;;;;;;5011952;28;20053;-73
2021/07/21 07:24:43;;;;;;;16.58;11.05;;;19.80;99.90;;;;;;5012952;28;20029;-73
2021/07/21 07:27:08;;;;;;;17.33;12.00;;;19.80;99.90;;;;;;5013247;28;20028;-73
2021/07/21 07:29:34;;;;;;;13.68;11.02;;;19.90;99.90;;;;;;5012299;28;20506;-73
2021/07/21 07:32:03;;;;;;;18.25;11.38;;;19.90;99.90;;;;;;5012781;28;20021;-73
2021/07/21 07:34:31;;;;;;;16.77;10.63;;;20.00;99.90;;;;;;5012028;28;20193;-73
2021/07/21 07:36:57;;;;;;;19.45;12.10;;;20.10;99.90;;;;;;5012268;28;20068;-74
2021/07/21 07:39:22;;;;;;;18.48;12.80;;;20.20;99.90;;;;;;5012843;28;20038;-72
2021/07/21 07:41:49;;;;;;;21.52;11.75;;;20.20;99.90;;;;;;5012021;28;20014;-73
2021/07/21 07:44:14;;;;;;;19.63;11.93;;;20.20;99.90;;;;;;5012701;28;20026;-72
2021/07/21 07:46:40;;;;;;;15.57;11.63;;;20.30;99.90;;;;;;5012634;28;20508;-73
2021/07/21 07:49:07;;;;;;;13.27;10.95;;;20.40;99.90;;;;;;5011748;28;20036;-73
2021/07/21 07:51:33;;;;;;;14.52;10.85;;;20.50;99.90;;;;;;5012691;28;20080;-73
2021/07/21 07:54:01;;;;;;;15.95;11.10;;;20.50;99.90;;;;;;5012465;28;20018;-72
2021/07/21 07:56:27;;;;;;;13.15;10.38;;;20.50;99.90;;;;;;5012531;28;20076;-73
2021/07/21 07:58:53;;;;;;;16.77;10.90;;;20.50;99.90;;;;;;5011438;28;20030;-74
2021/07/21 08:01:19;;;;;;;17.90;11.15;;;20.60;99.90;;;;;;5012577;28;20047;-73
2021/07/21 08:03:44;;;;;;;13.20;10.10;;;20.70;99.90;;;;;;5011975;28;20022;-73
2021/07/21 08:06:10;;;;;;;20.13;11.82;;;20.70;99.90;;;;;;5012500;28;20145;-72
2021/07/21 08:08:35;;;;;;;15.35;11.23;;;20.70;99.90;;;;;;5012377;28;20018;-72
2021/07/21 08:11:03;;;;;;;11.25;9.20;;;20.80;99.90;;;;;;5011406;28;20046;-73
2021/07/21 08:13:29;;;;;;;11.52;9.27;;;20.80;99.90;;;;;;5012283;28;20030;-73
2021/07/21 08:15:55;;;;;;;22.38;11.43;;;20.90;99.90;;;;;;5011962;28;20477;-73
2021/07/21 08:18:21;;;;;;;12.88;9.93;;;21.00;99.90;;;;;;5011905;28;20037;-75
2021/07/21 08:20:46;;;;;;;13.63;9.57;;;21.00;99.90;;;;;;5011737;28;20143;-73
2021/07/21 08:23:15;;;;;;;10.85;8.32;;;21.00;99.90;;;;;;5013077;28;20022;-72
2021/07/21 08:25:42;;;;;;;12.75;8.68;;;21.10;99.90;;;;;;5011545;28;20022;-73
2021/07/21 08:28:07;;;;;;;14.38;9.85;;;21.20;99.90;;;;;;5011696;28;20030;-73
2021/07/21 08:30:33;;;;;;;18.38;9.80;;;21.30;99.90;;;;;;5012271;28;20048;-73
2021/07/21 08:33:00;;;;;;;17.00;9.18;;;21.40;99.90;;;;;;5011128;28;20030;-73
2021/07/21 08:35:30;;;;;;;11.45;8.95;;;21.40;99.90;;;;;;5011947;28;20026;-75
2021/07/21 08:37:57;;;;;;;12.75;9.90;;;21.50;99.90;;;;;;5011351;28;20452;-73
2021/07/21 08:40:23;;;;;;;12.10;9.40;;;21.50;99.90;;;;;;5011762;28;20045;-73
2021/07/21 08:42:50;;;;;;;13.35;9.25;;;21.50;99.90;;;;;;5011918;28;20085;-72
2021/07/21 08:45:16;;;;;;;10.93;9.30;;;21.60;99.90;;;;;;5011198;28;20038;-73
2021/07/21 08:47:42;;;;;;;13.88;8.93;;;21.70;99.50;;;;;;5012012;28;20018;-73
2021/07/21 08:50:09;;;;;;;13.73;10.30;;;21.70;99.30;;;;;;5011725;28;20026;-74
2021/07/21 08:52:36;;;;;;;12.10;8.40;;;21.80;99.40;;;;;;4982002;28;20078;-73
2021/07/21 08:55:05;;;;;;;11.95;9.15;;;21.80;99.40;;;;;;4992551;28;20026;-74
2021/07/21 08:57:32;;;;;;;17.17;8.02;;;21.90;99.00;;;;;;4994650;28;20022;-74
2021/07/21 08:59:59;;;;;;;9.63;7.85;;;21.90;98.40;;;;;;4992734;28;20041;-74
2021/07/21 09:02:25;;;;;;;8.65;7.63;;;21.90;98.10;;;;;;4992400;28;20026;-74
2021/07/21 09:04:51;;;;;;;12.65;6.65;;;22.10;97.90;;;;;;4992098;28;20109;-73
2021/07/21 09:07:18;;;;;;;11.82;7.25;;;22.10;97.40;;;;;;4991583;28;20038;-73
2021/07/21 09:09:43;;;;;;;6.07;5.47;;;22.10;97.30;;;;;;4993737;28;20030;-73
2021/07/21 09:12:09;;;;;;;10.18;7.22;;;22.30;96.80;;;;;;5011701;28;20042;-75
2021/07/21 09:14:38;;;;;;;7.75;6.47;;;22.30;96.40;;;;;;5016182;28;20026;-74
2021/07/21 09:17:11;;;;;;;6.70;5.93;;;22.30;95.80;;;;;;5015056;28;20394;-72
2021/07/21 09:19:46;;;;;;;9.43;6.63;;;22.40;95.70;;;;;;5015217;28;20054;-73
2021/07/21 09:22:18;;;;;;;8.82;5.95;;;22.40;95.30;;;;;;5015048;28;20026;-73
2021/07/21 09:24:45;;;;;;;9.63;7.28;;;22.50;95.30;;;;;;5015268;28;20024;-73
2021/07/21 09:27:14;;;;;;;6.72;6.03;;;22.60;95.00;;;;;;5014317;28;20030;-73
2021/07/21 09:29:41;;;;;;;12.93;6.97;;;22.60;94.50;;;;;;5015400;28;20030;-72
2021/07/21 09:32:07;;;;;;;9.38;7.20;;;22.70;94.10;;;;;;5015049;28;20030;-73
2021/07/21 09:34:34;;;;;;;10.32;6.18;;;22.70;93.20;;;;;;5014526;28;20084;-74
2021/07/21 09:37:05;;;;;;;9.93;6.72;;;22.70;93.30;;;;;;5014940;28;20025;-74
2021/07/21 09:39:36;;;;;;;8.20;6.50;;;22.80;93.80;;;;;;5015150;28;20042;-73
2021/07/21 09:42:05;;;;;;;13.07;6.25;;;22.80;93.30;;;;;;5014721;28;20046;-74
2021/07/21 09:44:33;;;;;;;11.43;7.50;;;22.90;93.30;;;;;;5015630;28;20026;-74
2021/07/21 09:47:13;;;;;;;8.98;5.88;;;23.00;93.20;;;;;;5014539;28;20044;-73
2021/07/21 09:49:39;;;;;;;;;;;23.00;92.90;;;;;;5014929;28;20109;-73
2021/07/21 09:52:20;;;;;;;6.43;5.68;;;23.10;92.50;;;;;;5014637;28;20476;-73
2021/07/21 09:55:05;;;;;;;9.15;6.47;;;23.20;92.50;;;;;;5014733;28;20065;-73
2021/07/21 09:57:31;;;;;;;7.68;5.95;;;23.20;92.30;;;;;;5014635;28;20053;-73
2021/07/21 09:59:58;;;;;;;9.35;7.38;;;23.30;92.60;;;;;;5014343;28;20050;-72
2021/07/21 10:02:27;;;;;;;8.60;6.85;;;23.30;91.60;;;;;;5013606;28;20203;-72
2021/07/21 10:04:53;;;;;;;9.75;7.35;;;23.30;92.10;;;;;;5014716;28;20034;-73
2021/07/21 10:07:49;;;;;;;10.80;6.97;;;23.40;92.20;;;;;;5014559;28;20028;-73
2021/07/21 10:10:22;;;;;;;8.15;6.25;;;23.40;91.70;;;;;;5013510;28;20029;-73
2021/07/21 10:13:03;;;;;;;10.00;6.65;;;23.50;92.00;;;;;;5013915;28;20041;-72
2021/07/21 10:15:29;;;;;;;;;;;23.60;91.60;;;;;;5014542;28;20037;-72
2021/07/21 10:18:09;;;;;;;8.70;7.40;;;23.60;91.00;;;;;;5014284;28;19945;-73
2021/07/21 10:20:36;;;;;;;17.55;7.75;;;23.60;91.10;;;;;;5013436;28;20042;-73
2021/07/21 10:23:02;;;;;;;8.80;7.30;;;23.60;91.20;;;;;;5013699;28;20030;-73
2021/07/21 10:25:30;;;;;;;12.77;7.75;;;23.70;91.10;;;;;;5013378;28;20087;-73
2021/07/21 10:27:57;;;;;;;9.98;7.80;;;23.70;90.80;;;;;;5013937;28;20033;-74
2021/07/21 10:30:24;;;;;;;10.02;7.20;;;23.80;91.00;;;;;;5013269;28;20124;-73
2021/07/21 10:32:50;;;;;;;9.63;7.35;;;23.90;90.70;;;;;;5013837;28;20476;-73
2021/07/21 10:35:16;;;;;;;7.93;7.13;;;23.90;90.40;;;;;;5014020;28;20109;-74
2021/07/21 10:37:42;;;;;;;8.88;6.75;;;24.00;90.40;;;;;;5013204;28;20053;-73
2021/07/21 10:40:08;;;;;;;10.45;6.97;;;24.00;90.60;;;;;;5013387;28;20033;-74
2021/07/21 10:42:34;;;;;;;7.47;6.25;;;24.10;90.60;;;;;;5013849;28;20037;-73
2021/07/21 10:45:21;;;;;;;10.00;7.45;;;24.20;90.50;;;;;;5012065;28;20034;-73
2021/07/21 10:47:51;;;;;;;7.95;6.40;;;24.30;89.90;;;;;;5013193;28;20096;-72
2021/07/21 10:50:45;;;;;;;9.65;7.75;;;24.40;90.20;;;;;;5013444;28;20018;-73
2021/07/21 10:59:13;;;;;;;9.85;7.70;;;24.40;88.10;;;;;;5012282;28;20524;-73
2021/07/21 11:01:58;;;;;;;10.18;8.48;;;24.40;88.20;;;;;;5013658;28;20056;-73
2021/07/21 11:04:41;;;;;;;9.23;6.95;;;24.40;88.00;;;;;;4990276;28;20036;-73
2021/07/21 11:07:06;;;;;;;8.32;7.53;;;24.40;88.20;;;;;;5012214;28;20117;-73
2021/07/21 11:09:34;;;;;;;10.52;8.07;;;24.50;87.40;;;;;;5013145;28;20108;-73
2021/07/21 11:12:00;;;;;;;8.68;7.05;;;24.50;87.00;;;;;;5012523;28;20046;-72
2021/07/21 11:14:28;;;;;;;13.23;7.70;;;24.60;87.90;;;;;;5012514;28;20113;-73
2021/07/21 11:17:07;;;;;;;10.52;8.10;;;24.70;87.30;;;;;;5012922;28;20036;-72
2021/07/21 11:19:45;;;;;;;10.15;8.57;;;24.60;86.10;;;;;;4986571;28;20041;-73
2021/07/21 11:22:18;;;;;;;9.32;7.75;;;24.70;86.00;;;;;;5012974;28;20163;-74
2021/07/21 11:25:16;;;;;;;10.38;9.13;;;24.70;86.90;;;;;;5012991;28;20018;-73
2021/07/21 11:27:53;;;;;;;12.23;8.82;;;24.80;85.60;;;;;;5012123;28;20300;-73
2021/07/21 11:30:46;;;;;;;11.10;8.20;;;24.80;86.00;;;;;;5012835;28;20025;-73
2021/07/21 11:33:50;;;;;;;10.23;8.02;;;24.80;85.90;;;;;;4979439;28;20033;-73
2021/07/21 11:36:49;;;;;;;9.07;6.75;;;24.70;85.10;;;;;;5011054;28;20029;-72
2021/07/21 11:39:54;;;;;;;9.60;7.53;;;24.80;86.10;;;;;;5012895;28;20037;-73
2021/07/21 11:42:35;;;;;;;10.30;8.48;;;24.90;85.70;;;;;;4989508;28;20034;-73
2021/07/21 11:45:06;;;;;;;7.82;6.28;;;25.10;84.80;;;;;;5012123;28;20054;-73
2021/07/21 11:47:34;;;;;;;9.27;8.35;;;25.10;85.20;;;;;;5012589;28;20088;-73
2021/07/21 11:50:01;;;;;;;9.25;7.82;;;25.10;83.90;;;;;;4998597;28;20084;-73
2021/07/21 11:52:27;;;;;;;11.73;7.95;;;25.20;83.90;;;;;;5012672;28;20022;-73
2021/07/21 11:54:53;;;;;;;9.60;8.18;;;25.20;83.20;;;;;;5011581;28;20591;-73
2021/07/21 11:57:25;;;;;;;10.73;7.82;;;25.30;83.40;;;;;;5012427;28;20105;-73
2021/07/21 11:59:54;;;;;;;8.82;7.60;;;25.30;82.60;;;;;;5012315;28;20532;-74
2021/07/21 12:02:26;;;;;;;12.13;7.13;;;25.30;83.20;;;;;;5011998;28;20032;-73
2021/07/21 12:04:54;;;;;;;8.60;7.40;;;25.40;83.50;;;;;;5013323;28;20444;-73
2021/07/21 12:07:21;;;;;;;9.60;7.75;;;25.60;83.40;;;;;;5012529;28;20018;-73
2021/07/21 12:09:51;;;;;;;7.60;6.85;;;25.80;83.20;;;;;;5011871;28;20065;-73
2021/07/21 12:12:25;;;;;;;9.88;7.68;;;26.00;82.80;;;;;;5012404;28;20052;-73
2021/07/21 12:14:56;;;;;;;9.98;7.72;;;26.20;81.50;;;;;;5002373;28;20034;-73
2021/07/21 12:17:24;;;;;;;11.48;8.13;;;26.30;81.50;;;;;;5008602;28;20026;-73
2021/07/21 12:19:55;;;;;;;8.23;7.20;;;26.40;80.00;;;;;;5012116;28;20108;-72
2021/07/21 12:22:21;;;;;;;12.18;7.10;;;26.40;80.60;;;;;;5011858;28;20033;-73
2021/07/21 12:24:50;;;;;;;9.85;7.40;;;26.60;80.00;;;;;;5011547;28;20113;-74
2021/07/21 12:27:21;;;;;;;8.60;7.75;;;26.70;79.60;;;;;;5011948;28;20108;-74
2021/07/21 12:29:47;;;;;;;7.95;6.38;;;26.90;79.50;;;;;;5011403;28;20105;-73
2021/07/21 12:32:15;;;;;;;8.95;7.60;;;27.00;79.40;;;;;;5012156;28;20503;-73
2021/07/21 12:34:43;;;;;;;8.55;7.57;;;27.20;78.60;;;;;;5011811;28;20141;-73
2021/07/21 12:37:17;;;;;;;7.55;6.78;;;27.30;77.70;;;;;;5011425;28;20500;-73
2021/07/21 12:39:44;;;;;;;8.68;7.72;;;27.40;77.30;;;;;;5012016;28;20470;-72
2021/07/21 12:42:15;;;;;;;10.45;8.82;;;27.50;77.10;;;;;;5014108;28;20018;-73
2021/07/21 12:44:43;;;;;;;11.85;7.85;;;27.70;76.50;;;;;;5012660;28;20064;-73
2021/07/21 12:47:17;;;;;;;8.88;7.75;;;27.80;75.70;;;;;;5015871;28;20542;-72
2021/07/21 12:49:48;;;;;;;8.65;7.75;;;27.90;75.50;;;;;;5016117;28;20022;-73